Time;durP1;ratioP1;P1;durP2;ratioP2;P2;SDS_P1;SDS_P2;PMS_P1;PMS_P2;Temp;Humidity;BMP_temperature;BMP_pressure;BME280_temperature;BME280_humidity;BME280_pressure;Samples;Min_cycle;Max_cycle;Signal;HPM_P1;HPM_P2
2024/01/28 00:01:14;;;;;;;14.73;5.88;;;3.60;99.90;;;;;;6145807;23;20205;-84
2024/01/28 00:03:41;;;;;;;8.77;4.97;;;3.60;1.00;;;;;;6150891;23;20169;-83
2024/01/28 00:06:08;;;;;;;17.80;5.13;;;3.60;1.00;;;;;;6154646;23;20184;-84
2024/01/28 00:08:35;;;;;;;14.45;5.40;;;3.50;1.00;;;;;;6154005;23;20200;-83
2024/01/28 00:11:02;;;;;;;13.90;5.07;;;3.50;99.90;;;;;;6153708;23;20201;-83
2024/01/28 00:13:30;;;;;;;14.20;5.70;;;3.50;99.90;;;;;;6152303;23;20182;-83
2024/01/28 00:15:58;;;;;;;11.77;5.50;;;3.50;1.00;;;;;;6152258;23;20181;-84
2024/01/28 00:18:25;;;;;;;12.40;5.68;;;3.50;1.00;;;;;;6140525;23;20197;-84
2024/01/28 00:20:52;;;;;;;9.85;4.70;;;3.50;96.10;;;;;;6138506;23;20766;-84
2024/01/28 00:23:20;;;;;;;12.57;5.10;;;3.50;99.90;;;;;;6137017;23;20652;-84
2024/01/28 00:25:47;;;;;;;13.57;5.28;;;3.50;1.00;;;;;;6136615;23;20177;-83
2024/01/28 00:28:13;;;;;;;9.43;5.50;;;3.50;99.90;;;;;;6137963;23;20656;-84
2024/01/28 00:30:41;;;;;;;13.35;6.35;;;3.40;99.90;;;;;;6137993;23;20228;-84
2024/01/28 00:33:10;;;;;;;17.42;7.28;;;3.40;99.90;;;;;;6139212;23;20215;-84
2024/01/28 00:35:37;;;;;;;13.43;5.97;;;3.40;99.90;;;;;;6137942;23;20177;-84
2024/01/28 00:38:04;;;;;;;12.40;5.55;;;3.30;99.90;;;;;;6136363;23;20205;-84
2024/01/28 00:40:31;;;;;;;12.27;5.88;;;3.30;99.90;;;;;;6135848;23;20540;-84
2024/01/28 00:42:58;;;;;;;11.73;5.40;;;3.40;99.90;;;;;;6136115;23;20497;-85
2024/01/28 00:45:25;;;;;;;11.35;6.13;;;3.30;99.90;;;;;;6137235;23;20237;-85
2024/01/28 00:47:52;;;;;;;12.52;5.00;;;3.30;1.00;;;;;;6132684;23;20257;-84
2024/01/28 00:50:21;;;;;;;10.25;5.13;;;3.30;1.00;;;;;;6147941;23;20610;-83
2024/01/28 00:52:47;;;;;;;11.30;6.03;;;3.30;99.90;;;;;;6165772;23;20177;-82
2024/01/28 00:55:14;;;;;;;10.15;5.10;;;3.30;1.00;;;;;;6168027;23;20188;-83
2024/01/28 00:57:41;;;;;;;11.90;5.30;;;3.40;99.90;;;;;;6175579;23;20196;-83
2024/01/28 01:00:09;;;;;;;10.50;4.72;;;3.40;99.90;;;;;;6175322;23;20196;-83
2024/01/28 01:02:36;;;;;;;16.02;5.35;;;3.30;15.20;;;;;;6172935;23;20232;-83
2024/01/28 01:05:03;;;;;;;13.75;5.40;;;3.20;1.00;;;;;;6173993;23;20231;-83
2024/01/28 01:07:31;;;;;;;22.63;6.50;;;3.20;1.00;;;;;;6170457;23;20176;-83
2024/01/28 01:09:58;;;;;;;13.68;5.97;;;3.20;1.00;;;;;;6164466;23;20247;-83
2024/01/28 01:12:25;;;;;;;7.53;4.63;;;3.20;1.00;;;;;;6164050;23;20176;-83
2024/01/28 01:14:52;;;;;;;13.07;5.35;;;3.30;99.90;;;;;;6178620;23;20183;-82
2024/01/28 01:17:18;;;;;;;9.77;4.93;;;3.20;1.00;;;;;;6182687;23;20215;-83
2024/01/28 01:19:45;;;;;;;14.23;5.10;;;3.20;1.00;;;;;;6180868;23;20201;-82
2024/01/28 01:22:12;;;;;;;9.05;4.90;;;3.20;1.00;;;;;;6168173;23;20212;-83
2024/01/28 01:24:40;;;;;;;18.23;5.03;;;3.20;13.00;;;;;;6170874;23;20232;-82
2024/01/28 01:27:07;;;;;;;16.48;5.40;;;3.10;1.00;;;;;;6174854;23;20179;-82
2024/01/28 01:29:34;;;;;;;10.30;5.80;;;3.00;80.90;;;;;;6174570;23;20212;-82
2024/01/28 01:32:01;;;;;;;10.25;6.15;;;3.00;17.80;;;;;;6178886;23;20195;-81
2024/01/28 01:34:28;;;;;;;12.38;5.60;;;2.90;1.00;;;;;;6158823;23;20179;-82
2024/01/28 01:36:55;;;;;;;11.77;8.25;;;2.90;1.00;;;;;;6161455;23;20566;-82
2024/01/28 01:39:22;;;;;;;13.48;5.30;;;2.90;99.90;;;;;;6162941;23;20220;-82
2024/01/28 01:41:50;;;;;;;8.52;5.63;;;2.90;98.50;;;;;;6162206;23;20204;-82
2024/01/28 01:44:16;;;;;;;20.45;5.20;;;2.90;50.40;;;;;;6162485;23;20183;-83
2024/01/28 01:46:46;;;;;;;10.43;5.03;;;2.80;98.70;;;;;;6162074;23;20211;-84
2024/01/28 01:49:13;;;;;;;14.80;5.85;;;2.80;99.90;;;;;;6161902;23;20200;-83
2024/01/28 01:51:41;;;;;;;13.50;5.38;;;2.90;99.90;;;;;;6161097;23;20164;-83
2024/01/28 01:54:09;;;;;;;9.73;5.30;;;2.90;99.90;;;;;;6161257;23;20211;-83
2024/01/28 01:56:36;;;;;;;7.20;4.88;;;2.80;99.90;;;;;;6161831;23;20181;-83
2024/01/28 01:59:05;;;;;;;15.52;5.70;;;2.80;99.90;;;;;;6162147;23;20196;-82
2024/01/28 02:01:34;;;;;;;10.45;4.78;;;2.80;99.90;;;;;;6164261;23;20263;-82
2024/01/28 02:04:01;;;;;;;8.95;5.65;;;2.70;99.90;;;;;;6163890;23;20577;-82
2024/01/28 02:06:27;;;;;;;14.48;5.22;;;2.80;1.00;;;;;;6164251;23;20173;-84
2024/01/28 02:08:55;;;;;;;13.93;5.80;;;2.90;99.90;;;;;;6166017;23;20550;-83
2024/01/28 02:11:22;;;;;;;14.13;6.15;;;2.90;41.20;;;;;;6165624;23;20192;-83
2024/01/28 02:13:49;;;;;;;8.43;6.05;;;2.90;1.00;;;;;;6166682;23;20182;-83
2024/01/28 02:16:18;;;;;;;18.08;9.05;;;2.80;1.00;;;;;;6168611;23;20702;-83
2024/01/28 02:18:44;;;;;;;19.73;8.45;;;2.70;1.00;;;;;;6168895;23;20204;-81
2024/01/28 02:21:12;;;;;;;23.55;8.93;;;2.80;99.90;;;;;;6162517;23;20563;-81
2024/01/28 02:23:40;;;;;;;26.15;8.00;;;2.80;99.90;;;;;;6163117;23;20572;-81
2024/01/28 02:26:06;;;;;;;15.07;8.40;;;2.80;42.10;;;;;;6164671;23;20192;-81
2024/01/28 02:28:33;;;;;;;15.35;7.25;;;2.70;1.00;;;;;;6164498;23;20176;-82
2024/01/28 02:31:00;;;;;;;18.20;7.50;;;2.70;56.50;;;;;;6165011;23;20269;-81
2024/01/28 02:33:27;;;;;;;19.48;9.20;;;2.70;99.90;;;;;;6164424;23;20177;-82
2024/01/28 02:35:54;;;;;;;21.98;7.72;;;2.60;99.90;;;;;;6171316;23;20204;-81
2024/01/28 02:38:21;;;;;;;13.98;6.35;;;2.60;1.00;;;;;;6175791;23;20188;-82
2024/01/28 02:40:52;;;;;;;11.48;6.22;;;2.70;1.00;;;;;;6176197;23;20200;-81
2024/01/28 02:43:19;;;;;;;14.57;7.07;;;2.70;1.00;;;;;;6170957;23;20165;-82
2024/01/28 02:45:46;;;;;;;22.48;7.60;;;2.70;99.90;;;;;;6176021;23;20228;-82
2024/01/28 02:48:13;;;;;;;21.48;9.75;;;2.70;99.90;;;;;;6173513;23;20177;-83
2024/01/28 02:50:40;;;;;;;29.15;13.63;;;2.60;12.40;;;;;;6173809;23;20259;-82
2024/01/28 02:53:07;;;;;;;24.23;10.65;;;2.50;99.90;;;;;;6176282;23;20210;-82
2024/01/28 02:55:34;;;;;;;25.40;11.15;;;2.50;1.00;;;;;;6176735;23;20179;-82
2024/01/28 02:58:03;;;;;;;23.75;10.98;;;2.50;1.00;;;;;;6177211;23;20200;-82
2024/01/28 03:00:30;;;;;;;16.45;9.75;;;2.40;1.00;;;;;;6176122;23;20197;-82
2024/01/28 03:02:57;;;;;;;18.85;8.40;;;2.40;1.00;;;;;;6175819;23;20180;-83
2024/01/28 03:05:24;;;;;;;19.65;8.55;;;2.40;1.00;;;;;;6178317;23;20204;-81
2024/01/28 03:07:51;;;;;;;19.60;9.70;;;2.30;1.00;;;;;;6182042;23;20167;-81
2024/01/28 03:10:17;;;;;;;22.55;12.32;;;2.30;35.60;;;;;;6185473;23;20187;-81
2024/01/28 03:12:49;;;;;;;22.90;12.25;;;2.30;25.50;;;;;;6179082;23;20191;-83
2024/01/28 03:15:21;;;;;;;25.35;11.80;;;2.20;1.00;;;;;;6176706;23;20165;-81
2024/01/28 03:17:48;;;;;;;22.85;12.02;;;2.10;55.50;;;;;;6170967;23;20224;-82
2024/01/28 03:20:17;;;;;;;36.10;17.58;;;2.10;99.90;;;;;;6179268;23;20204;-82
2024/01/28 03:22:44;;;;;;;36.30;15.50;;;2.20;99.90;;;;;;6179462;23;20199;-81
2024/01/28 03:25:12;;;;;;;36.65;16.00;;;2.10;99.90;;;;;;6167895;23;20187;-82
2024/01/28 03:27:39;;;;;;;29.05;13.57;;;2.10;99.90;;;;;;6164931;23;20183;-82
2024/01/28 03:30:08;;;;;;;23.38;11.52;;;2.10;99.90;;;;;;6165868;23;20284;-82
2024/01/28 03:32:36;;;;;;;26.65;14.25;;;2.10;99.90;;;;;;6164267;23;20204;-83
2024/01/28 03:35:03;;;;;;;24.88;14.07;;;2.00;94.40;;;;;;6164010;23;20212;-82
2024/01/28 03:37:30;;;;;;;26.65;13.10;;;1.80;99.90;;;;;;6164346;23;20180;-82
2024/01/28 03:39:57;;;;;;;23.85;10.98;;;1.90;1.00;;;;;;6164319;23;20200;-81
2024/01/28 03:42:24;;;;;;;20.35;10.05;;;1.90;99.90;;;;;;6164218;23;20207;-82
2024/01/28 03:44:51;;;;;;;25.70;11.00;;;1.60;99.90;;;;;;6162866;23;20177;-82
2024/01/28 03:47:18;;;;;;;17.65;7.78;;;1.60;99.90;;;;;;6162919;23;20184;-82
2024/01/28 03:49:46;;;;;;;12.85;6.88;;;1.60;1.00;;;;;;6162119;23;20283;-82
2024/01/28 03:52:13;;;;;;;10.48;6.80;;;1.70;1.00;;;;;;6162661;23;20239;-82
2024/01/28 03:54:41;;;;;;;15.35;9.13;;;1.80;1.00;;;;;;6162681;23;20200;-83
2024/01/28 03:57:08;;;;;;;26.52;9.52;;;1.80;1.00;;;;;;6166451;23;20180;-83
2024/01/28 03:59:39;;;;;;;21.90;9.93;;;1.80;99.90;;;;;;6176668;23;20201;-81
2024/01/28 04:02:07;;;;;;;23.60;11.27;;;1.70;99.90;;;;;;6182972;23;20160;-81
2024/01/28 04:04:34;;;;;;;20.95;12.10;;;1.60;99.90;;;;;;6181094;23;20191;-82
2024/01/28 04:07:02;;;;;;;18.92;11.68;;;1.70;1.00;;;;;;6178838;23;20180;-81
2024/01/28 04:09:29;;;;;;;34.15;11.90;;;1.80;1.00;;;;;;6178684;23;20203;-82
2024/01/28 04:11:56;;;;;;;16.98;9.68;;;1.80;1.00;;;;;;6179262;23;20180;-83
2024/01/28 04:14:23;;;;;;;16.98;8.90;;;1.70;99.90;;;;;;6176466;23;20228;-83
2024/01/28 04:16:51;;;;;;;21.08;8.35;;;1.60;99.90;;;;;;6177462;23;20187;-82
2024/01/28 04:19:17;;;;;;;17.92;7.88;;;1.50;1.00;;;;;;6182283;23;20259;-82
2024/01/28 04:21:47;;;;;;;21.80;7.70;;;1.50;1.00;;;;;;6169743;23;20184;-83
2024/01/28 04:24:18;;;;;;;16.00;7.95;;;1.70;1.00;;;;;;6166553;23;20204;-83
2024/01/28 04:26:46;;;;;;;11.02;6.45;;;1.70;1.00;;;;;;6168205;23;20187;-83
2024/01/28 04:29:12;;;;;;;16.67;6.93;;;1.60;99.90;;;;;;6182630;23;20197;-80
2024/01/28 04:31:43;;;;;;;12.40;6.85;;;1.60;99.90;;;;;;6184937;23;20180;-81
2024/01/28 04:34:11;;;;;;;12.75;6.32;;;1.60;99.90;;;;;;6179321;23;20212;-83
2024/01/28 04:36:38;;;;;;;19.02;8.02;;;1.70;1.00;;;;;;6173783;23;20180;-82
2024/01/28 04:39:05;;;;;;;18.70;8.05;;;1.70;99.90;;;;;;6168515;23;20267;-83
2024/01/28 04:41:34;;;;;;;15.43;5.70;;;1.70;99.90;;;;;;6167038;23;20228;-83
2024/01/28 04:44:02;;;;;;;11.18;5.70;;;1.60;98.30;;;;;;6165744;23;20181;-83
2024/01/28 04:46:29;;;;;;;11.63;6.25;;;1.40;99.90;;;;;;6164801;23;20176;-83
2024/01/28 04:48:56;;;;;;;15.77;6.72;;;1.30;99.90;;;;;;6164203;23;20203;-82
2024/01/28 04:51:28;;;;;;;10.13;6.88;;;1.20;99.90;;;;;;6163309;23;20176;-82
2024/01/28 04:53:55;;;;;;;11.85;7.05;;;1.20;99.90;;;;;;6164016;23;20561;-82
2024/01/28 07:26:38;;;;;;;;;;;;;;;;;;;;;
2024/01/28 10:34:11;;;;;;;9.35;6.75;;;4.10;99.90;;;;;;6087236;23;20189;-87
2024/01/28 10:56:10;;;;;;;12.73;7.75;;;4.70;99.90;;;;;;5842443;24;20293;-87
2024/01/28 11:01:30;;;;;;;19.50;8.23;;;4.70;99.90;;;;;;5855772;24;20191;-90
2024/01/28 11:03:58;;;;;;;13.25;7.80;;;4.80;99.90;;;;;;5990361;23;20167;-89
2024/01/28 11:06:27;;;;;;;12.10;8.07;;;4.80;99.90;;;;;;6089568;23;20207;-90
2024/01/28 16:10:52;;;;;;;10.57;6.15;;;5.90;1.00;;;;;;6231838;23;20217;-87
2024/01/28 16:13:19;;;;;;;9.82;6.30;;;5.70;1.00;;;;;;6233533;23;20194;-86
2024/01/28 16:15:46;;;;;;;8.82;6.97;;;5.50;1.00;;;;;;6244089;23;20182;-87
2024/01/28 16:18:13;;;;;;;14.50;6.68;;;5.60;1.00;;;;;;6244592;23;20198;-87
2024/01/28 16:20:40;;;;;;;14.48;7.68;;;5.70;1.00;;;;;;6244540;23;20186;-88
2024/01/28 16:23:07;;;;;;;15.07;6.20;;;5.70;1.00;;;;;;6239773;23;20593;-87
2024/01/28 16:25:34;;;;;;;10.10;7.30;;;5.60;1.00;;;;;;6240364;23;20179;-87
2024/01/28 16:28:02;;;;;;;10.98;7.18;;;5.40;1.00;;;;;;6238977;23;20202;-87
2024/01/28 16:30:29;;;;;;;13.10;7.47;;;5.40;1.00;;;;;;6180012;23;20200;-87
2024/01/28 16:32:56;;;;;;;14.95;7.82;;;5.60;1.00;;;;;;6162179;23;20187;-87
2024/01/28 16:35:23;;;;;;;23.60;14.35;;;5.20;1.00;;;;;;6161885;23;20208;-87
2024/01/28 16:37:50;;;;;;;11.65;8.00;;;5.40;1.00;;;;;;6163901;23;20256;-87
2024/01/28 16:40:17;;;;;;;9.40;6.75;;;5.60;1.00;;;;;;6165285;23;20207;-87
2024/01/28 16:42:44;;;;;;;11.20;6.75;;;5.40;1.00;;;;;;6180704;23;20176;-87
2024/01/28 16:45:14;;;;;;;8.68;7.75;;;5.30;1.00;;;;;;6176359;23;20207;-87
2024/01/28 16:47:42;;;;;;;16.23;8.07;;;5.30;1.00;;;;;;6163217;23;20235;-87
2024/01/28 16:50:10;;;;;;;9.60;6.78;;;5.30;1.00;;;;;;6163368;23;20192;-87
2024/01/28 16:52:37;;;;;;;14.43;6.90;;;5.30;1.00;;;;;;6162142;23;20208;-88
2024/01/28 16:55:05;;;;;;;12.52;7.20;;;5.30;1.00;;;;;;6160560;23;20184;-87
2024/01/28 16:57:32;;;;;;;19.48;9.95;;;5.40;1.00;;;;;;6160660;23;20177;-88
2024/01/28 16:59:59;;;;;;;23.65;10.82;;;5.40;1.00;;;;;;6171243;23;20200;-87
2024/01/28 17:02:28;;;;;;;11.80;7.30;;;5.30;1.00;;;;;;6181747;23;20159;-87
2024/01/28 17:04:54;;;;;;;14.60;7.15;;;5.20;1.00;;;;;;6162979;23;20554;-87
2024/01/28 17:07:23;;;;;;;13.25;8.38;;;5.00;1.00;;;;;;6162250;23;20188;-88
2024/01/28 17:09:50;;;;;;;11.25;7.13;;;5.00;1.00;;;;;;6163062;23;20247;-88
2024/01/28 17:12:17;;;;;;;13.57;8.35;;;4.80;1.00;;;;;;6162957;23;20222;-88
2024/01/28 17:14:44;;;;;;;8.43;6.60;;;4.80;1.00;;;;;;6182029;23;20160;-89
2024/01/28 17:17:11;;;;;;;9.70;6.72;;;4.80;1.00;;;;;;6169256;23;20176;-90
2024/01/28 17:19:40;;;;;;;10.65;7.70;;;4.80;1.00;;;;;;6166250;23;20264;-88
2024/01/28 17:22:08;;;;;;;20.30;9.82;;;4.80;1.00;;;;;;6175502;23;20255;-88
2024/01/28 17:24:36;;;;;;;16.85;8.02;;;4.70;1.00;;;;;;6177858;23;20172;-88
2024/01/28 17:27:09;;;;;;;15.75;7.15;;;4.60;1.00;;;;;;6167739;23;20177;-88
2024/01/28 17:29:36;;;;;;;10.00;7.35;;;4.70;1.00;;;;;;6174862;23;20202;-88
2024/01/28 17:32:04;;;;;;;17.38;7.97;;;4.50;1.00;;;;;;6191735;23;20231;-88
2024/01/28 17:34:32;;;;;;;14.10;7.50;;;4.60;1.00;;;;;;6191182;23;20172;-88
2024/01/28 17:37:00;;;;;;;13.57;8.02;;;4.60;1.00;;;;;;6192048;23;20175;-88
2024/01/28 17:39:27;;;;;;;12.68;8.20;;;4.60;1.00;;;;;;6193665;23;20594;-87
2024/01/28 17:42:02;;;;;;;14.63;7.90;;;4.50;1.00;;;;;;6193163;23;20649;-87
2024/01/28 17:44:29;;;;;;;11.45;7.25;;;4.40;4.80;;;;;;6193747;23;20167;-88
2024/01/28 17:46:56;;;;;;;13.15;8.43;;;4.40;16.30;;;;;;6190595;23;20168;-87
2024/01/28 17:49:23;;;;;;;14.85;7.85;;;4.40;38.90;;;;;;6190739;23;20536;-87
2024/01/28 17:51:50;;;;;;;11.85;9.63;;;4.40;90.40;;;;;;6205757;23;20176;-86
2024/01/28 17:54:18;;;;;;;19.02;9.05;;;4.40;51.70;;;;;;6214033;23;20183;-88
2024/01/28 17:56:45;;;;;;;13.82;8.57;;;4.30;99.90;;;;;;6207797;23;20455;-87
2024/01/28 17:59:12;;;;;;;13.98;10.90;;;4.40;99.90;;;;;;6208265;23;20242;-87
2024/01/28 18:01:38;;;;;;;12.93;10.45;;;4.40;46.50;;;;;;6198297;23;20517;-87
2024/01/28 18:04:05;;;;;;;14.15;9.45;;;4.50;99.90;;;;;;6191157;23;20707;-87
2024/01/28 18:06:32;;;;;;;18.45;10.85;;;4.40;50.70;;;;;;6190339;23;20565;-89
2024/01/28 18:08:59;;;;;;;19.77;13.13;;;4.30;99.90;;;;;;6189425;23;20227;-88
2024/01/28 18:11:27;;;;;;;19.00;11.70;;;4.30;99.90;;;;;;6189930;23;20182;-87
2024/01/28 18:13:54;;;;;;;20.60;11.60;;;4.40;99.90;;;;;;6190267;23;20230;-87
2024/01/28 18:16:21;;;;;;;19.08;11.98;;;4.50;99.90;;;;;;6190887;23;20199;-86
2024/01/28 18:18:48;;;;;;;15.38;12.63;;;4.50;98.60;;;;;;6190774;23;20187;-88
2024/01/28 18:21:15;;;;;;;20.65;13.20;;;4.60;95.00;;;;;;6192401;23;20198;-88
2024/01/28 18:23:45;;;;;;;18.25;11.98;;;4.50;92.90;;;;;;6192310;23;20256;-87
2024/01/28 18:26:12;;;;;;;11.85;10.18;;;4.40;99.90;;;;;;6193326;23;20203;-88
2024/01/28 18:28:41;;;;;;;19.55;11.05;;;4.40;99.90;;;;;;6209566;23;20155;-87
2024/01/28 18:31:07;;;;;;;20.65;11.90;;;4.40;99.90;;;;;;6213851;23;20172;-85
2024/01/28 18:33:36;;;;;;;30.00;16.35;;;4.40;99.90;;;;;;6213857;23;20206;-86
2024/01/28 18:36:03;;;;;;;21.67;13.65;;;4.20;99.90;;;;;;6208681;23;20201;-85
2024/01/28 18:38:30;;;;;;;28.05;14.90;;;4.10;99.90;;;;;;6202730;23;20180;-86
2024/01/28 18:40:59;;;;;;;18.58;13.52;;;4.10;99.90;;;;;;6206431;23;20203;-88
2024/01/28 18:43:27;;;;;;;19.95;14.63;;;4.20;99.90;;;;;;6207164;23;20203;-88
2024/01/28 18:45:55;;;;;;;22.77;13.27;;;4.20;99.90;;;;;;6208445;23;20583;-86
2024/01/28 18:48:22;;;;;;;25.40;14.57;;;4.20;99.90;;;;;;6205607;23;20203;-88
2024/01/28 18:50:50;;;;;;;17.45;13.15;;;4.20;99.90;;;;;;6202915;23;20252;-87
2024/01/28 18:53:17;;;;;;;17.83;12.93;;;4.20;99.90;;;;;;6201658;23;20171;-88
2024/01/28 18:55:44;;;;;;;13.75;10.68;;;4.20;99.90;;;;;;6199177;23;20186;-88
2024/01/28 18:58:12;;;;;;;25.85;11.38;;;4.10;99.90;;;;;;6197919;23;20186;-87
2024/01/28 19:00:41;;;;;;;23.35;13.63;;;3.90;99.90;;;;;;6199815;23;20199;-88
2024/01/28 19:03:11;;;;;;;20.40;14.65;;;4.00;99.90;;;;;;6194732;23;20172;-88
2024/01/28 19:05:41;;;;;;;25.65;15.70;;;4.00;99.90;;;;;;6191322;23;20176;-88
2024/01/28 19:08:08;;;;;;;24.98;14.48;;;4.00;99.90;;;;;;6192299;23;20230;-88
2024/01/28 19:10:35;;;;;;;24.45;14.57;;;4.00;99.90;;;;;;6196698;23;20196;-87
2024/01/28 19:13:03;;;;;;;18.88;12.32;;;3.90;99.90;;;;;;6211427;23;20167;-87
2024/01/28 19:15:29;;;;;;;26.23;13.10;;;3.90;99.90;;;;;;6213443;23;20178;-88
2024/01/28 19:17:58;;;;;;;24.88;13.90;;;3.90;99.90;;;;;;6199040;23;20191;-87
2024/01/28 19:20:26;;;;;;;17.70;13.50;;;4.00;99.90;;;;;;6200173;23;20234;-88
2024/01/28 19:22:54;;;;;;;19.65;12.35;;;3.90;99.90;;;;;;6202512;23;20180;-89
2024/01/28 19:25:21;;;;;;;16.15;12.30;;;3.80;99.90;;;;;;6206767;23;20160;-88
2024/01/28 19:27:48;;;;;;;22.50;12.63;;;3.80;99.90;;;;;;6215178;23;20194;-88
2024/01/28 19:30:16;;;;;;;21.02;13.00;;;3.90;99.90;;;;;;6203623;23;20210;-87
2024/01/28 19:32:42;;;;;;;17.30;11.43;;;3.90;99.90;;;;;;6197767;23;20183;-87
2024/01/28 19:35:15;;;;;;;20.42;10.90;;;3.80;99.90;;;;;;6201136;23;20183;-88
2024/01/28 19:37:43;;;;;;;21.33;11.25;;;3.70;99.90;;;;;;6200732;23;20176;-87
2024/01/28 19:40:13;;;;;;;22.08;11.77;;;3.70;99.90;;;;;;6194967;23;20724;-88
2024/01/28 19:42:42;;;;;;;17.17;11.25;;;3.70;99.90;;;;;;6196879;23;20236;-87
2024/01/28 19:45:10;;;;;;;21.23;11.40;;;3.80;99.90;;;;;;6197189;23;20176;-87
2024/01/28 19:47:37;;;;;;;16.38;11.32;;;3.80;99.90;;;;;;6199148;23;20187;-87
2024/01/28 19:50:05;;;;;;;17.52;9.73;;;3.80;99.90;;;;;;6209415;23;20238;-86
2024/01/28 19:52:32;;;;;;;20.88;11.18;;;3.80;99.90;;;;;;6201956;23;20176;-87
2024/01/28 19:55:00;;;;;;;16.30;11.13;;;3.80;99.90;;;;;;6214104;23;20175;-87
2024/01/28 19:57:27;;;;;;;14.35;10.38;;;3.80;99.90;;;;;;6210906;23;20175;-86
2024/01/28 19:59:54;;;;;;;14.05;9.20;;;3.80;99.90;;;;;;6207201;23;20195;-88
2024/01/28 20:02:21;;;;;;;14.98;9.82;;;3.80;99.90;;;;;;6196817;23;20207;-87
2024/01/28 20:04:48;;;;;;;12.70;8.90;;;3.70;99.90;;;;;;6200667;23;20179;-86
2024/01/28 20:07:15;;;;;;;14.02;9.05;;;3.70;99.90;;;;;;6207082;23;20180;-87
2024/01/28 20:09:42;;;;;;;14.88;9.40;;;3.70;99.90;;;;;;6208182;23;20200;-88
2024/01/28 20:12:11;;;;;;;13.40;7.45;;;3.70;99.90;;;;;;6207198;23;20594;-88
2024/01/28 20:14:38;;;;;;;9.90;7.45;;;3.70;99.90;;;;;;6199766;23;20187;-88
2024/01/28 20:17:06;;;;;;;8.13;7.32;;;3.70;95.70;;;;;;6200022;23;20176;-87
2024/01/28 20:19:34;;;;;;;12.95;8.90;;;3.70;27.90;;;;;;6200181;23;20226;-87
2024/01/28 20:22:00;;;;;;;11.65;7.60;;;3.70;24.00;;;;;;6198274;23;20206;-88
2024/01/28 20:24:27;;;;;;;10.65;7.57;;;3.70;27.30;;;;;;6200282;23;20175;-88
2024/01/28 20:26:54;;;;;;;13.90;6.78;;;3.70;1.00;;;;;;6197291;23;20202;-88
2024/01/28 20:29:22;;;;;;;12.75;6.70;;;3.70;1.00;;;;;;6196809;23;20238;-88
2024/01/28 20:31:49;;;;;;;12.68;6.47;;;3.80;1.00;;;;;;6197121;23;20160;-87
2024/01/28 20:34:16;;;;;;;8.38;5.75;;;3.80;1.00;;;;;;6195060;23;20230;-87
2024/01/28 20:36:44;;;;;;;9.20;7.03;;;3.80;1.00;;;;;;6200921;23;20255;-87
2024/01/28 20:39:11;;;;;;;13.88;8.23;;;3.80;1.00;;;;;;6200206;23;20203;-88
2024/01/28 20:41:39;;;;;;;16.58;8.82;;;3.70;1.00;;;;;;6197740;23;20199;-87
2024/01/28 20:44:06;;;;;;;12.88;7.25;;;3.70;1.00;;;;;;6199235;23;20235;-87
2024/01/28 20:46:34;;;;;;;9.23;6.72;;;3.70;1.00;;;;;;6199649;23;20187;-87
2024/01/28 20:49:01;;;;;;;15.70;8.77;;;3.70;1.00;;;;;;6196602;23;20666;-87
2024/01/28 20:51:28;;;;;;;13.65;6.93;;;3.70;1.00;;;;;;6196137;23;20218;-88
2024/01/28 20:53:55;;;;;;;14.00;8.32;;;3.70;1.00;;;;;;6196875;23;20180;-88
2024/01/28 20:56:25;;;;;;;12.18;6.93;;;3.70;1.00;;;;;;6198461;23;20180;-90
2024/01/28 20:58:52;;;;;;;9.13;7.35;;;3.70;1.00;;;;;;6196149;23;20216;-87
2024/01/28 21:01:19;;;;;;;14.23;8.07;;;3.70;1.00;;;;;;6204863;23;20247;-87
2024/01/28 21:03:47;;;;;;;11.52;7.45;;;3.70;1.00;;;;;;6212745;23;20172;-88
2024/01/28 21:06:14;;;;;;;9.05;6.75;;;3.60;1.00;;;;;;6204271;23;20175;-88
2024/01/28 21:08:41;;;;;;;10.60;5.95;;;3.60;1.00;;;;;;6194736;23;20179;-88
2024/01/28 21:11:11;;;;;;;16.13;6.07;;;3.50;1.00;;;;;;6206931;23;20183;-88
2024/01/28 21:13:38;;;;;;;9.13;5.20;;;3.50;1.00;;;;;;6210874;23;20176;-88
2024/01/28 21:16:05;;;;;;;10.10;5.90;;;3.60;1.00;;;;;;6204827;23;20207;-87
2024/01/28 21:18:32;;;;;;;12.40;6.70;;;3.50;1.00;;;;;;6198437;23;20180;-87
2024/01/28 21:21:01;;;;;;;10.98;6.13;;;3.50;1.00;;;;;;6197243;23;20188;-88
2024/01/28 21:23:28;;;;;;;13.30;6.43;;;3.50;1.00;;;;;;6194344;23;20183;-88
2024/01/28 21:26:01;;;;;;;19.20;7.28;;;3.70;1.00;;;;;;6196235;23;20184;-90
2024/01/28 21:28:28;;;;;;;9.80;7.18;;;3.50;1.00;;;;;;6200718;23;20171;-87
2024/01/28 21:30:55;;;;;;;8.43;5.53;;;3.50;1.00;;;;;;6200063;23;20199;-87
2024/01/28 21:33:22;;;;;;;10.88;6.00;;;3.50;1.00;;;;;;6200752;23;20200;-86
2024/01/28 21:35:49;;;;;;;10.23;5.60;;;3.50;1.00;;;;;;6203892;23;20263;-87
2024/01/28 21:38:17;;;;;;;10.55;5.88;;;3.40;1.00;;;;;;6206481;23;20250;-87
2024/01/28 21:40:44;;;;;;;10.02;5.95;;;3.40;1.00;;;;;;6201960;23;20199;-87
2024/01/28 21:43:13;;;;;;;15.90;6.50;;;3.40;1.00;;;;;;6211389;23;20170;-88
2024/01/28 21:45:41;;;;;;;13.25;7.03;;;3.40;1.00;;;;;;6211737;23;20175;-87
2024/01/28 21:48:08;;;;;;;8.98;5.82;;;3.40;1.00;;;;;;6211253;23;20203;-86
2024/01/28 21:50:35;;;;;;;9.68;7.18;;;3.30;1.00;;;;;;6211824;23;20247;-87
2024/01/28 21:53:02;;;;;;;12.20;6.78;;;3.30;1.00;;;;;;6212140;23;20232;-88
2024/01/28 21:55:31;;;;;;;15.45;5.95;;;3.30;1.00;;;;;;6213989;23;20208;-87
2024/01/28 21:57:59;;;;;;;11.18;5.80;;;3.20;1.00;;;;;;6208653;23;20180;-89
2024/01/28 22:00:26;;;;;;;9.95;6.28;;;3.20;1.00;;;;;;6212682;23;20195;-86
2024/01/28 22:02:53;;;;;;;10.85;6.50;;;3.20;1.00;;;;;;6212444;23;20202;-87
2024/01/28 22:05:20;;;;;;;13.82;6.35;;;3.20;1.00;;;;;;6207722;23;20186;-86
2024/01/28 22:07:49;;;;;;;9.43;6.10;;;3.20;1.00;;;;;;6198368;23;20207;-90
2024/01/28 22:10:19;;;;;;;14.13;6.65;;;3.10;1.00;;;;;;6195209;23;20577;-87
2024/01/28 22:12:48;;;;;;;9.10;5.70;;;3.10;1.00;;;;;;6194081;23;20182;-88
2024/01/28 22:15:22;;;;;;;8.38;6.38;;;3.10;1.00;;;;;;6196498;23;20199;-88
2024/01/28 22:17:49;;;;;;;12.98;6.78;;;3.00;1.00;;;;;;6197259;23;20182;-88
2024/01/28 22:20:19;;;;;;;9.23;5.70;;;3.00;1.00;;;;;;6196994;23;20223;-89
2024/01/28 22:22:47;;;;;;;15.88;8.05;;;3.00;1.00;;;;;;6196350;23;20686;-88
2024/01/28 22:25:15;;;;;;;7.90;5.50;;;3.00;11.80;;;;;;6192057;23;20185;-88
2024/01/28 22:27:42;;;;;;;9.73;5.75;;;3.00;1.00;;;;;;6191986;23;20211;-87
2024/01/28 22:30:12;;;;;;;11.02;5.95;;;3.00;1.00;;;;;;6217988;23;20206;-89
2024/01/28 22:32:39;;;;;;;15.48;5.78;;;3.00;1.00;;;;;;6250741;23;20608;-89
2024/01/28 22:35:07;;;;;;;9.70;6.50;;;2.90;1.00;;;;;;6250426;23;20274;-87
2024/01/28 22:37:34;;;;;;;8.95;6.35;;;2.80;1.00;;;;;;6251177;23;20185;-87
2024/01/28 22:40:01;;;;;;;9.13;5.95;;;2.80;1.00;;;;;;6257018;23;20190;-89
2024/01/28 22:42:28;;;;;;;12.20;5.30;;;2.80;1.00;;;;;;6254628;23;20198;-89
2024/01/28 22:44:55;;;;;;;12.82;5.88;;;2.80;1.00;;;;;;6257354;23;20197;-87
2024/01/28 22:47:23;;;;;;;12.18;6.63;;;2.70;1.00;;;;;;6260473;23;20174;-87
2024/01/28 22:49:50;;;;;;;9.45;6.68;;;2.70;1.00;;;;;;6258911;23;20198;-88
2024/01/28 22:52:17;;;;;;;8.95;5.00;;;2.70;1.00;;;;;;6258867;23;20234;-88
2024/01/28 22:54:45;;;;;;;11.23;5.55;;;2.60;1.00;;;;;;6272358;22;20162;-88
2024/01/28 22:57:13;;;;;;;10.93;5.78;;;2.60;5.00;;;;;;6273972;22;20178;-87
2024/01/28 22:59:40;;;;;;;11.43;6.15;;;2.60;3.90;;;;;;6274835;22;20202;-86
2024/01/28 23:02:07;;;;;;;11.63;6.60;;;2.60;13.60;;;;;;6276438;22;20190;-88
2024/01/28 23:04:35;;;;;;;10.40;5.38;;;2.60;11.10;;;;;;6261181;23;20205;-88
2024/01/28 23:07:02;;;;;;;11.00;5.97;;;2.60;1.10;;;;;;6256428;23;20210;-88
2024/01/28 23:09:30;;;;;;;12.07;6.75;;;2.60;10.40;;;;;;6254333;23;20206;-88
2024/01/28 23:11:57;;;;;;;11.77;6.65;;;2.50;1.00;;;;;;6254270;23;20178;-87
2024/01/28 23:14:23;;;;;;;6.72;5.07;;;2.50;1.00;;;;;;6254357;23;20179;-88
2024/01/28 23:16:50;;;;;;;11.95;5.68;;;2.50;22.50;;;;;;6254944;23;20178;-88
2024/01/28 23:19:17;;;;;;;11.05;5.63;;;2.50;31.30;;;;;;6256749;23;20222;-88
2024/01/28 23:21:45;;;;;;;25.00;12.48;;;2.50;33.80;;;;;;6257454;23;20214;-88
2024/01/28 23:24:15;;;;;;;9.20;5.30;;;2.50;8.80;;;;;;6257300;23;20507;-88
2024/01/28 23:26:42;;;;;;;7.47;5.60;;;2.50;4.30;;;;;;6252850;23;20178;-88
2024/01/28 23:29:09;;;;;;;8.27;5.53;;;2.40;26.20;;;;;;6252921;23;20198;-88
2024/01/28 23:31:35;;;;;;;7.88;6.10;;;2.40;14.00;;;;;;6252220;23;20190;-88
2024/01/28 23:34:02;;;;;;;12.73;6.07;;;2.40;24.00;;;;;;6252949;23;20258;-88
2024/01/28 23:36:29;;;;;;;11.95;5.45;;;2.50;1.00;;;;;;6251382;23;20238;-88
2024/01/28 23:38:58;;;;;;;7.22;5.38;;;2.50;3.30;;;;;;6252327;23;20257;-88
2024/01/28 23:41:25;;;;;;;8.05;5.35;;;2.50;1.00;;;;;;6251250;23;20190;-88
2024/01/28 23:43:51;;;;;;;14.00;6.25;;;2.50;1.00;;;;;;6251585;23;20181;-88
2024/01/28 23:46:19;;;;;;;8.27;5.45;;;2.30;65.40;;;;;;6251348;23;20210;-88
2024/01/28 23:48:45;;;;;;;8.88;5.40;;;2.40;43.90;;;;;;6262067;23;20218;-88
2024/01/28 23:51:12;;;;;;;8.52;6.18;;;2.30;34.60;;;;;;6272326;23;20178;-87
2024/01/28 23:53:39;;;;;;;7.40;6.13;;;2.20;99.90;;;;;;6256104;23;20185;-87